^^
Grace C. Lehan Memorial Weather Station Historical Data
Daily Summary for August 1, 2021 Units:  English    Metric   Both
Daily Weekly Monthly Yearly
  High: Low: Average:
Temperature: 68.2 °F 45.4 °F 56.4 °F
Dew Point: 53.9 °F 43.2 °F 48 °F
Humidity: 94.7% 50.6% 76%
Wind Speed: 6mph 0mph 0.8mph
Wind Gust: 14mph - -
Wind- - WNW
Pressure: 30.20 in 30.12 in -
Precipitation: 0.00 in    
 
 
Tabular Data for August 1, 2021
Time Temperature Dew Point Pressure Wind Wind Speed Wind Gust Humidity Rainfall Rate (Hourly) solar
00:09 50.7 °F 46.9 °F 30.13 in Calm     86.9% 0.00 in 0 W/m2
00:14 50.6 °F 46.8 °F 30.13 in Calm     87% 0.00 in 0 W/m2
00:19 50.4 °F 46.7 °F 30.13 in Calm     87% 0.00 in 0 W/m2
00:24 50.3 °F 46.6 °F 30.13 in Calm     87% 0.00 in 0 W/m2
00:29 50.2 °F 46.7 °F 30.13 in Calm     87.7% 0.00 in 0 W/m2
00:34 50.1 °F 46.7 °F 30.12 in Calm     88% 0.00 in 0 W/m2
00:39 50 °F 46.6 °F 30.12 in Calm     88% 0.00 in 0 W/m2
00:44 49.9 °F 46.5 °F 30.12 in Calm     88% 0.00 in 0 W/m2
00:49 49.8 °F 46.4 °F 30.12 in Calm     88% 0.00 in 0 W/m2
00:54 49.8 °F 46.5 °F 30.12 in Calm     88.4% 0.00 in 0 W/m2
00:59 49.7 °F 46.6 °F 30.12 in Calm     89% 0.00 in 0 W/m2
01:04 49.7 °F 46.6 °F 30.12 in Calm     89% 0.00 in 0 W/m2
01:09 49.7 °F 46.6 °F 30.12 in Calm     89% 0.00 in 0 W/m2
01:14 49.6 °F 46.8 °F 30.13 in Calm     90% 0.00 in 0 W/m2
01:19 49.6 °F 46.8 °F 30.13 in Calm     90% 0.00 in 0 W/m2
01:24 49.5 °F 46.7 °F 30.13 in Calm     90% 0.00 in 0 W/m2
01:29 49.4 °F 46.6 °F 30.13 in Calm     90% 0.00 in 0 W/m2
01:34 49.4 °F 46.6 °F 30.13 in Calm     90% 0.00 in 0 W/m2
01:39 49.4 °F 46.6 °F 30.13 in Calm     90% 0.00 in 0 W/m2
01:44 49.2 °F 46.4 °F 30.13 in Calm     90% 0.00 in 0 W/m2
01:49 49.1 °F 46.3 °F 30.13 in Calm     90% 0.00 in 0 W/m2
01:54 49 °F 46.2 °F 30.13 in Calm     90% 0.00 in 0 W/m2
01:59 49 °F 46.2 °F 30.13 in Calm     90% 0.00 in 0 W/m2
02:04 48.9 °F 46.1 °F 30.13 in Calm     90% 0.00 in 0 W/m2
02:09 48.9 °F 46.1 °F 30.13 in NNW 0.1 mph 3 mph 90% 0.00 in 0 W/m2
02:14 48.9 °F 46.1 °F 30.13 in NNW 0.2 mph 3 mph 90% 0.00 in 0 W/m2
02:19 48.9 °F 46.1 °F 30.13 in Calm   3 mph 90% 0.00 in 0 W/m2
02:24 48.9 °F 46.1 °F 30.13 in Calm   3 mph 90% 0.00 in 0 W/m2
02:29 48.9 °F 46.1 °F 30.13 in Calm   3 mph 90% 0.00 in 0 W/m2
02:34 49 °F 46.2 °F 30.13 in Calm   3 mph 90% 0.00 in 0 W/m2
02:39 48.9 °F 46.1 °F 30.14 in Calm     90% 0.00 in 0 W/m2
02:44 48.9 °F 46.1 °F 30.14 in Calm     90% 0.00 in 0 W/m2
02:49 48.8 °F 46 °F 30.14 in Calm     90% 0.00 in 0 W/m2
02:54 48.8 °F 46 °F 30.13 in Calm     90% 0.00 in 0 W/m2
02:59 48.7 °F 45.9 °F 30.13 in Calm     90% 0.00 in 0 W/m2
03:04 48.7 °F 45.9 °F 30.13 in Calm     90% 0.00 in 0 W/m2
03:09 48.7 °F 45.9 °F 30.13 in Calm     90% 0.00 in 0 W/m2
03:14 48.6 °F 45.5 °F 30.13 in Calm     89.1% 0.00 in 0 W/m2
03:19 48.5 °F 45.4 °F 30.13 in Calm     89% 0.00 in 0 W/m2
03:24 48.4 °F 45.3 °F 30.13 in Calm     89% 0.00 in 0 W/m2
03:29 48.4 °F 45.3 °F 30.13 in Calm     89% 0.00 in 0 W/m2
03:34 48.3 °F 45.2 °F 30.13 in Calm     89% 0.00 in 0 W/m2
03:39 48.3 °F 45.2 °F 30.13 in Calm     89% 0.00 in 0 W/m2
03:44 48 °F 44.9 °F 30.13 in Calm     89% 0.00 in 0 W/m2
03:49 47.8 °F 44.7 °F 30.13 in Calm     89% 0.00 in 0 W/m2
03:54 47.6 °F 44.8 °F 30.13 in Calm     90% 0.00 in 0 W/m2
03:59 47.4 °F 44.6 °F 30.14 in Calm     90% 0.00 in 0 W/m2
04:00 47.3 °F 44.7 °F 30.14 in Calm     90.5% 0.00 in 0 W/m2
04:09 47.2 °F 44.7 °F 30.14 in Calm     91% 0.00 in 0 W/m2
04:14 47.2 °F 44.7 °F 30.14 in Calm     91% 0.00 in 0 W/m2
04:19 47.2 °F 44.7 °F 30.14 in Calm     91% 0.00 in 0 W/m2
04:24 47.3 °F 45 °F 30.14 in Calm     91.7% 0.00 in 0 W/m2
04:29 47.2 °F 45 °F 30.15 in Calm     92% 0.00 in 0 W/m2
04:34 47.2 °F 45 °F 30.15 in Calm     92% 0.00 in 0 W/m2
04:39 47.2 °F 45 °F 30.15 in Calm     92% 0.00 in 0 W/m2
04:44 47.2 °F 45 °F 30.15 in Calm     92% 0.00 in 0 W/m2
04:49 47.2 °F 45 °F 30.15 in Calm   2 mph 92% 0.00 in 0 W/m2
04:54 47.2 °F 45 °F 30.15 in Calm   2 mph 92% 0.00 in 0 W/m2
04:59 47.3 °F 45.1 °F 30.15 in NNW 0.4 mph 5 mph 92% 0.00 in 0 W/m2
05:04 47.5 °F 45.3 °F 30.15 in Calm   5 mph 92% 0.00 in 0 W/m2
05:09 47.6 °F 45.4 °F 30.15 in Calm     91.9% 0.00 in 0 W/m2
05:14 47.6 °F 45.2 °F 30.16 in Calm     91% 0.00 in 0 W/m2
05:19 47.6 °F 45.2 °F 30.16 in Calm     91% 0.00 in 0 W/m2
05:24 47.6 °F 45.1 °F 30.16 in Calm     91% 0.00 in 0 W/m2
05:29 47.5 °F 45.1 °F 30.16 in Calm     91% 0.00 in 0 W/m2
05:34 47.5 °F 45 °F 30.16 in Calm     91% 0.00 in 0 W/m2
05:39 47.4 °F 44.9 °F 30.16 in Calm     91% 0.00 in 0 W/m2
05:44 47.3 °F 44.8 °F 30.16 in Calm     91% 0.00 in 0 W/m2
05:49 47.2 °F 44.7 °F 30.16 in Calm     91% 0.00 in 0 W/m2
05:54 47 °F 44.5 °F 30.17 in Calm     91% 0.00 in 0 W/m2
05:59 46.9 °F 44.4 °F 30.17 in Calm     91% 0.00 in 0 W/m2
06:04 46.8 °F 44.3 °F 30.16 in Calm     91% 0.00 in 0 W/m2
06:09 46.7 °F 44.2 °F 30.16 in Calm     91% 0.00 in 0 W/m2
06:14 46.6 °F 44.1 °F 30.17 in Calm     91% 0.00 in 0 W/m2
06:19 46.5 °F 44 °F 30.17 in Calm     91% 0.00 in 0 W/m2
06:24 46.3 °F 43.9 °F 30.17 in Calm     91% 0.00 in 0 W/m2
06:29 46.2 °F 43.7 °F 30.17 in Calm     91% 0.00 in 0 W/m2
06:34 46.1 °F 43.6 °F 30.17 in Calm     91.1% 0.00 in 0 W/m2
06:39 45.9 °F 43.5 °F 30.17 in Calm     91% 0.00 in 0 W/m2
06:44 45.8 °F 43.6 °F 30.17 in Calm     92% 0.00 in 0 W/m2
06:49 45.6 °F 43.3 °F 30.17 in Calm     91.6% 0.00 in 0 W/m2
06:54 45.5 °F 43.3 °F 30.17 in Calm     92% 0.00 in 0 W/m2
06:59 45.4 °F 43.2 °F 30.18 in Calm     92% 0.00 in 5 W/m2
07:04 45.5 °F 43.5 °F 30.18 in Calm     92.6% 0.00 in 7 W/m2
07:09 45.5 °F 43.6 °F 30.18 in Calm     93% 0.00 in 9 W/m2
07:14 45.5 °F 43.6 °F 30.18 in Calm     93% 0.00 in 9 W/m2
07:19 45.5 °F 43.6 °F 30.18 in Calm     93% 0.00 in 11 W/m2
07:24 45.5 °F 43.6 °F 30.18 in Calm     93% 0.00 in 12 W/m2
07:29 45.6 °F 43.7 °F 30.18 in Calm     93% 0.00 in 18 W/m2
07:34 45.6 °F 43.8 °F 30.18 in Calm   1 mph 93.1% 0.00 in 18 W/m2
07:39 45.8 °F 44.2 °F 30.18 in Calm   1 mph 94% 0.00 in 16 W/m2
07:44 46.1 °F 44.4 °F 30.19 in Calm   1 mph 94% 0.00 in 19 W/m2
07:49 46.3 °F 44.7 °F 30.19 in Calm   1 mph 94% 0.00 in 23 W/m2
07:54 46.6 °F 45 °F 30.18 in Calm   1 mph 94% 0.00 in 21 W/m2
07:59 46.8 °F 45.2 °F 30.18 in Calm   1 mph 94% 0.00 in 21 W/m2
08:00 46.9 °F 45.3 °F 30.18 in Calm   1 mph 94% 0.00 in 19 W/m2
08:09 47.2 °F 45.6 °F 30.19 in Calm     94% 0.00 in 32 W/m2
08:14 47.4 °F 45.8 °F 30.19 in Calm     94% 0.00 in 26 W/m2
08:19 47.7 °F 46 °F 30.19 in Calm     94% 0.00 in 30 W/m2
08:24 47.9 °F 46.4 °F 30.19 in Calm     94.4% 0.00 in 25 W/m2
08:29 48.3 °F 46.8 °F 30.19 in Calm     94.7% 0.00 in 25 W/m2
08:34 48.7 °F 47.2 °F 30.19 in Calm     94.7% 0.00 in 37 W/m2
08:39 49 °F 47.4 °F 30.19 in Calm     94.2% 0.00 in 39 W/m2
08:44 49.4 °F 47.7 °F 30.19 in Calm     94% 0.00 in 39 W/m2
08:49 49.8 °F 48.1 °F 30.19 in NNW 0.2 mph 3 mph 94% 0.00 in 42 W/m2
08:54 50.4 °F 48.6 °F 30.19 in Calm   3 mph 93.8% 0.00 in 49 W/m2
08:59 51 °F 49.1 °F 30.20 in Calm   3 mph 93% 0.00 in 62 W/m2
09:04 51.7 °F 49.4 °F 30.20 in Calm   3 mph 91.7% 0.00 in 243 W/m2
09:09 52.5 °F 49.7 °F 30.20 in Calm     90.1% 0.00 in 404 W/m2
09:14 53.5 °F 50.1 °F 30.20 in Calm     88.2% 0.00 in 422 W/m2
09:19 55.1 °F 51.1 °F 30.20 in Calm     86.3% 0.00 in 445 W/m2
09:24 56.7 °F 51.9 °F 30.20 in NNW 0.1 mph 2 mph 83.8% 0.00 in 462 W/m2
09:29 58.1 °F 52.1 °F 30.20 in WNW 0.7 mph 6 mph 80.6% 0.00 in 482 W/m2
09:34 59.5 °F 52.2 °F 30.19 in West 2.5 mph 9 mph 76.8% 0.00 in 497 W/m2
09:39 60.6 °F 52.7 °F 30.19 in WNW 0.2 mph 9 mph 75.2% 0.00 in 512 W/m2
09:44 61.6 °F 53 °F 30.19 in WSW 0.8 mph 9 mph 73.3% 0.00 in 526 W/m2
09:49 62.5 °F 52.5 °F 30.19 in WNW 0.7 mph 9 mph 69.8% 0.00 in 538 W/m2
09:54 63.3 °F 53.1 °F 30.19 in NW 0.3 mph 9 mph 69.3% 0.00 in 550 W/m2
09:59 64.1 °F 53.2 °F 30.19 in NW 0.3 mph 9 mph 67.8% 0.00 in 561 W/m2
10:04 64.6 °F 53.5 °F 30.19 in Calm   9 mph 67.2% 0.00 in 571 W/m2
10:09 65.1 °F 53.8 °F 30.19 in NW 0.1 mph 2 mph 66.6% 0.00 in 582 W/m2
10:14 65.7 °F 53.7 °F 30.19 in NW 0.9 mph 5 mph 65.2% 0.00 in 596 W/m2
10:19 66.2 °F 53.6 °F 30.19 in NW 0.7 mph 5 mph 63.7% 0.00 in 608 W/m2
10:24 66.6 °F 53.7 °F 30.19 in NW 0.2 mph 5 mph 63.2% 0.00 in 617 W/m2
10:29 66.8 °F 53.9 °F 30.19 in NW 0.4 mph 5 mph 63.3% 0.00 in 628 W/m2
10:34 67 °F 53.2 °F 30.19 in NW 0.8 mph 5 mph 61.2% 0.00 in 638 W/m2
10:39 67.3 °F 53.3 °F 30.19 in NNW 0.6 mph 4 mph 60.8% 0.00 in 647 W/m2
10:44 67.6 °F 53.2 °F 30.18 in Calm   4 mph 60% 0.00 in 657 W/m2
10:49 67.8 °F 53.5 °F 30.18 in NNE 0.3 mph 4 mph 60.2% 0.00 in 668 W/m2
10:54 68.1 °F 52.4 °F 30.18 in West 1.9 mph 9 mph 57.3% 0.00 in 677 W/m2
10:59 68.1 °F 51.9 °F 30.17 in WNW 1.7 mph 9 mph 56.3% 0.00 in 684 W/m2
11:04 68.2 °F 52.3 °F 30.17 in NW 2.7 mph 9 mph 56.8% 0.00 in 691 W/m2
11:09 68 °F 51.5 °F 30.17 in NW 2 mph 9 mph 55.5% 0.00 in 703 W/m2
11:14 68 °F 51.6 °F 30.17 in NW 1.7 mph 9 mph 55.6% 0.00 in 708 W/m2
11:19 68.1 °F 51.2 °F 30.17 in WNW 4.1 mph 10 mph 54.8% 0.00 in 729 W/m2
11:24 67.9 °F 51.2 °F 30.17 in WNW 2.7 mph 10 mph 55% 0.00 in 729 W/m2
11:29 67.8 °F 51.1 °F 30.17 in WNW 2.6 mph 10 mph 55% 0.00 in 640 W/m2
11:34 67.8 °F 51.2 °F 30.17 in WNW 1.7 mph 10 mph 55.3% 0.00 in 290 W/m2
11:39 67.9 °F 51.5 °F 30.17 in WNW 1.7 mph 8 mph 55.8% 0.00 in 352 W/m2
11:44 68.1 °F 52.1 °F 30.17 in NNW 1.3 mph 8 mph 56.6% 0.00 in 209 W/m2
11:49 68 °F 50.9 °F 30.17 in WNW 1.8 mph 10 mph 54.3% 0.00 in 142 W/m2
11:54 67.5 °F 49.7 °F 30.16 in WNW 5.8 mph 12 mph 52.9% 0.00 in 383 W/m2
11:59 66.9 °F 49.6 °F 30.16 in WNW 3.2 mph 12 mph 53.8% 0.00 in 383 W/m2
12:00 66.7 °F 49.6 °F 30.16 in WNW 5 mph 12 mph 54% 0.00 in 327 W/m2
12:09 66.6 °F 49.6 °F 30.17 in WNW 4.4 mph 12 mph 54.4% 0.00 in 269 W/m2
12:14 66.5 °F 49.1 °F 30.16 in WNW 6 mph 14 mph 53.4% 0.00 in 269 W/m2
12:19 66.3 °F 49.2 °F 30.16 in West 3.6 mph 14 mph 54.1% 0.00 in 606 W/m2
12:24 66.5 °F 49.7 °F 30.17 in WNW 3.2 mph 14 mph 54.8% 0.00 in 575 W/m2
12:29 66.8 °F 49.8 °F 30.16 in NW 3.4 mph 14 mph 54.5% 0.00 in 585 W/m2
12:34 67 °F 48.9 °F 30.17 in WNW 4.4 mph 14 mph 52.1% 0.00 in 547 W/m2
12:39 67 °F 49.5 °F 30.16 in NW 1.4 mph 14 mph 53.3% 0.00 in 118 W/m2
12:44 67 °F 49.1 °F 30.16 in WNW 5.8 mph 14 mph 52.5% 0.00 in 156 W/m2
12:49 66.7 °F 48.1 °F 30.16 in NW 3.4 mph 14 mph 51.3% 0.00 in 190 W/m2
12:54 66.5 °F 48.4 °F 30.16 in NW 2.5 mph 14 mph 52% 0.00 in 95 W/m2
12:59 66.7 °F 48.8 °F 30.16 in NW 5.5 mph 14 mph 52.5% 0.00 in 506 W/m2
13:04 66.8 °F 47.9 °F 30.16 in NW 4.6 mph 14 mph 50.6% 0.00 in 608 W/m2
13:09 66.9 °F 49.1 °F 30.16 in West 5.1 mph 13 mph 52.8% 0.00 in 165 W/m2
13:14 66.8 °F 49.1 °F 30.16 in WNW 3.2 mph 13 mph 52.9% 0.00 in 169 W/m2
13:19 66.9 °F 50.4 °F 30.16 in West 1.1 mph 13 mph 55.3% 0.00 in 169 W/m2
13:24 66.8 °F 49.2 °F 30.16 in NNW 3.8 mph 13 mph 53.2% 0.00 in 214 W/m2
13:29 66.3 °F 48.7 °F 30.16 in NNW 2.8 mph 13 mph 52.9% 0.00 in 188 W/m2
13:34 66.3 °F 49.1 °F 30.15 in WNW 2.5 mph 13 mph 53.9% 0.00 in 134 W/m2
13:39 66.1 °F 48.6 °F 30.15 in WNW 2.5 mph 11 mph 53.2% 0.00 in 336 W/m2
13:44 66 °F 49.4 °F 30.15 in NW 3.8 mph 11 mph 55% 0.00 in 496 W/m2
13:49 66.1 °F 49.8 °F 30.15 in WNW 1.5 mph 11 mph 55.7% 0.00 in 450 W/m2
13:54 66.4 °F 50 °F 30.15 in NW 1.8 mph 11 mph 55.5% 0.00 in 192 W/m2
13:59 66.8 °F 49.7 °F 30.14 in WNW 2.7 mph 11 mph 54.2% 0.00 in 232 W/m2
14:04 67.1 °F 50.4 °F 30.14 in WNW 2.2 mph 12 mph 55% 0.00 in 350 W/m2
14:09 67.3 °F 50.1 °F 30.14 in WNW 2.8 mph 12 mph 54% 0.00 in 230 W/m2
14:14 67.2 °F 49.8 °F 30.14 in WNW 1.2 mph 12 mph 53.6% 0.00 in 211 W/m2
14:19 67.2 °F 50.3 °F 30.14 in WNW 4.8 mph 12 mph 54.6% 0.00 in 195 W/m2
14:24 67.2 °F 49 °F 30.14 in WNW 5.1 mph 12 mph 52% 0.00 in 137 W/m2
14:29 67 °F 49.5 °F 30.13 in West 3 mph 12 mph 53.4% 0.00 in 134 W/m2
14:34 66.6 °F 49 °F 30.13 in WSW 1.9 mph 12 mph 53.1% 0.00 in 105 W/m2
14:39 66.2 °F 49.2 °F 30.13 in West 1.8 mph 10 mph 54.3% 0.00 in 72 W/m2
14:44 65.8 °F 49.4 °F 30.13 in West 1.3 mph 10 mph 55.4% 0.00 in 163 W/m2
14:49 65.6 °F 49.1 °F 30.13 in WSW 1.9 mph 10 mph 55.2% 0.00 in 102 W/m2
14:54 65.5 °F 49.1 °F 30.13 in West 4.1 mph 10 mph 55.4% 0.00 in 156 W/m2
14:59 65.3 °F 48.9 °F 30.13 in NW 1.3 mph 10 mph 55.2% 0.00 in 190 W/m2
15:04 65.5 °F 49 °F 30.12 in WNW 1.1 mph 10 mph 55.3% 0.00 in 188 W/m2
15:09 65.7 °F 49 °F 30.12 in West 2.7 mph 11 mph 54.8% 0.00 in 74 W/m2
15:14 66 °F 48.9 °F 30.13 in WSW 2.8 mph 11 mph 53.9% 0.00 in 98 W/m2
15:19 66.2 °F 48.5 °F 30.13 in West 3.1 mph 11 mph 52.8% 0.00 in 192 W/m2
15:24 66.1 °F 48.8 °F 30.13 in West 2.4 mph 11 mph 53.5% 0.00 in 192 W/m2
15:29 65.9 °F 49.2 °F 30.13 in WNW 1.7 mph 11 mph 54.8% 0.00 in 67 W/m2
15:34 65.7 °F 49.1 °F 30.13 in WNW 1.4 mph 11 mph 55% 0.00 in 77 W/m2
15:39 65.4 °F 48.1 °F 30.12 in WNW 0.8 mph 9 mph 53.4% 0.00 in 149 W/m2
15:44 65.3 °F 48.3 °F 30.12 in NW 0.9 mph 9 mph 54.1% 0.00 in 107 W/m2
15:49 65.4 °F 48.6 °F 30.12 in NW 1.1 mph 9 mph 54.5% 0.00 in 60 W/m2
15:54 65.6 °F 48.4 °F 30.12 in NW 1.1 mph 9 mph 53.8% 0.00 in 83 W/m2
15:59 65.8 °F 48.7 °F 30.12 in NW 0.3 mph 9 mph 54% 0.00 in 83 W/m2
16:00 65.9 °F 48.3 °F 30.12 in Calm   9 mph 53% 0.00 in 39 W/m2
16:09 66.1 °F 49.3 °F 30.12 in NW 2.1 mph 6 mph 54.7% 0.00 in 77 W/m2
16:14 66.3 °F 49.2 °F 30.12 in NW 0.7 mph 6 mph 54% 0.00 in 67 W/m2
16:19 66.4 °F 48.8 °F 30.12 in WNW 2.2 mph 9 mph 53% 0.00 in 47 W/m2
16:24 66.4 °F 49.1 °F 30.12 in NW 2.7 mph 10 mph 53.8% 0.00 in 32 W/m2
16:29 66.3 °F 48.1 °F 30.12 in WNW 4.8 mph 13 mph 52% 0.00 in 26 W/m2
16:34 66.2 °F 48.7 °F 30.12 in WNW 3.8 mph 13 mph 53.3% 0.00 in 26 W/m2
16:39 66.1 °F 49.4 °F 30.12 in WNW 0.8 mph 10 mph 54.9% 0.00 in 25 W/m2
16:44 66 °F 49.4 °F 30.13 in WNW 1.9 mph 10 mph 55.1% 0.00 in 25 W/m2
16:49 65.9 °F 48.8 °F 30.13 in West 4.6 mph 10 mph 54% 0.00 in 25 W/m2
16:54 65.8 °F 48.2 °F 30.13 in West 3.3 mph 10 mph 53% 0.00 in 23 W/m2
16:59 65.7 °F 48.6 °F 30.13 in WNW 2.3 mph 10 mph 54% 0.00 in 23 W/m2
17:04 65.6 °F 48.7 °F 30.13 in West 2.3 mph 10 mph 54.3% 0.00 in 23 W/m2
17:09 65.5 °F 48.1 °F 30.13 in WNW 2.7 mph 9 mph 53.5% 0.00 in 21 W/m2
17:14 65.3 °F 48 °F 30.13 in WNW 2.2 mph 9 mph 53.6% 0.00 in 23 W/m2
17:19 65 °F 48.4 °F 30.13 in West 0.4 mph 9 mph 54.8% 0.00 in 25 W/m2
17:24 64.9 °F 48.3 °F 30.13 in WNW 1.5 mph 9 mph 55% 0.00 in 28 W/m2
17:29 64.7 °F 48.3 °F 30.13 in WNW 1.9 mph 9 mph 55.4% 0.00 in 35 W/m2
17:34 64.5 °F 48 °F 30.13 in WNW 1.6 mph 9 mph 55% 0.00 in 33 W/m2
17:39 64.4 °F 48.5 °F 30.14 in WNW 0.6 mph 5 mph 56.3% 0.00 in 19 W/m2
17:44 64.2 °F 48.4 °F 30.14 in WNW 0.2 mph 5 mph 56.4% 0.00 in 14 W/m2
17:49 64 °F 48.9 °F 30.14 in Calm   5 mph 57.8% 0.00 in 12 W/m2
17:54 63.8 °F 48.8 °F 30.14 in WNW 0.1 mph 5 mph 58% 0.00 in 12 W/m2
17:59 63.6 °F 48.9 °F 30.14 in WNW 0.4 mph 5 mph 58.9% 0.00 in 11 W/m2
18:04 63.3 °F 48.9 °F 30.14 in Calm   5 mph 59.4% 0.00 in 9 W/m2
18:09 63.1 °F 49 °F 30.14 in Calm     60.1% 0.00 in 9 W/m2
18:14 62.8 °F 49.3 °F 30.15 in WNW 0.1 mph 1 mph 61.1% 0.00 in 9 W/m2
18:19 62.6 °F 49.4 °F 30.15 in Calm   1 mph 62% 0.00 in 7 W/m2
18:24 62.3 °F 49.5 °F 30.15 in Calm   1 mph 62.8% 0.00 in 5 W/m2
18:29 62.1 °F 49.4 °F 30.16 in Calm   1 mph 63.2% 0.00 in 0 W/m2
18:34 61.8 °F 49.3 °F 30.16 in Calm   1 mph 63.6% 0.00 in 0 W/m2
18:39 61.5 °F 49.4 °F 30.16 in Calm     64.5% 0.00 in 0 W/m2
18:44 61.2 °F 49.4 °F 30.15 in Calm     65% 0.00 in 0 W/m2
18:49 60.9 °F 49.5 °F 30.15 in Calm     66% 0.00 in 0 W/m2
18:54 60.6 °F 49.2 °F 30.15 in Calm     66% 0.00 in 0 W/m2
18:59 60.3 °F 49.1 °F 30.15 in Calm     66.4% 0.00 in 0 W/m2
19:04 60 °F 49.1 °F 30.15 in Calm     67.2% 0.00 in 0 W/m2
19:09 59.7 °F 49.3 °F 30.15 in Calm     68.4% 0.00 in 0 W/m2
19:14 59.4 °F 49.5 °F 30.15 in Calm     69.5% 0.00 in 0 W/m2
19:19 59.1 °F 49.3 °F 30.15 in Calm     70% 0.00 in 0 W/m2
19:24 58.8 °F 49.4 °F 30.16 in Calm     71% 0.00 in 0 W/m2
19:29 58.5 °F 49.2 °F 30.16 in Calm     71.3% 0.00 in 0 W/m2
19:34 58.2 °F 49.4 °F 30.16 in Calm     72.4% 0.00 in 0 W/m2
19:39 57.9 °F 49.5 °F 30.16 in Calm     73.5% 0.00 in 0 W/m2
19:44 57.7 °F 49.4 °F 30.16 in Calm     74% 0.00 in 0 W/m2
19:49 57.4 °F 49.2 °F 30.16 in Calm     74% 0.00 in 0 W/m2
19:54 57.2 °F 49.3 °F 30.16 in Calm     74.8% 0.00 in 0 W/m2
19:59 57 °F 49.3 °F 30.16 in Calm     75.5% 0.00 in 0 W/m2
20:00 56.8 °F 49.3 °F 30.16 in Calm     76% 0.00 in 0 W/m2
20:09 56.5 °F 49.4 °F 30.16 in Calm     77% 0.00 in 0 W/m2
20:14 56.3 °F 49.3 °F 30.16 in Calm     77.4% 0.00 in 0 W/m2
20:19 56 °F 49.3 °F 30.16 in Calm     78% 0.00 in 0 W/m2
20:24 55.8 °F 49.3 °F 30.16 in Calm     78.7% 0.00 in 0 W/m2
20:29 55.5 °F 49.1 °F 30.17 in Calm     79% 0.00 in 0 W/m2
20:34 55.3 °F 49.2 °F 30.16 in Calm     79.8% 0.00 in 0 W/m2
20:39 55.1 °F 49.1 °F 30.17 in Calm     80% 0.00 in 0 W/m2
20:44 55 °F 49.2 °F 30.17 in Calm     80.8% 0.00 in 0 W/m2
20:49 54.9 °F 49.1 °F 30.17 in Calm     81% 0.00 in 0 W/m2
20:54 54.7 °F 49 °F 30.17 in Calm     81% 0.00 in 0 W/m2
20:59 54.6 °F 48.9 °F 30.17 in Calm     81% 0.00 in 0 W/m2
21:04 54.5 °F 49 °F 30.17 in Calm     81.5% 0.00 in 0 W/m2
21:09 54.4 °F 49 °F 30.17 in Calm     81.8% 0.00 in 0 W/m2
21:14 54.3 °F 48.9 °F 30.16 in Calm     82% 0.00 in 0 W/m2
21:19 54.2 °F 48.8 °F 30.17 in Calm     82% 0.00 in 0 W/m2
21:24 54.2 °F 49 °F 30.16 in Calm     82.6% 0.00 in 0 W/m2
21:29 54.1 °F 49 °F 30.17 in Calm     82.8% 0.00 in 0 W/m2
21:34 54 °F 48.8 °F 30.17 in Calm     82.4% 0.00 in 0 W/m2
21:39 53.9 °F 48.8 °F 30.17 in Calm     83% 0.00 in 0 W/m2
21:44 53.7 °F 48.7 °F 30.17 in Calm     83% 0.00 in 0 W/m2
21:49 53.6 °F 48.6 °F 30.17 in Calm     83% 0.00 in 0 W/m2
21:54 53.5 °F 48.7 °F 30.17 in Calm     83.6% 0.00 in 0 W/m2
21:59 53.4 °F 48.7 °F 30.17 in Calm     84% 0.00 in 0 W/m2
22:04 53.3 °F 48.7 °F 30.17 in Calm     84.4% 0.00 in 0 W/m2
22:09 53.1 °F 48.7 °F 30.17 in Calm     85% 0.00 in 0 W/m2
22:14 53 °F 48.6 °F 30.17 in Calm     85% 0.00 in 0 W/m2
22:19 52.9 °F 48.8 °F 30.17 in Calm     85.8% 0.00 in 0 W/m2
22:24 52.8 °F 48.7 °F 30.17 in Calm     86% 0.00 in 0 W/m2
22:29 52.7 °F 48.6 °F 30.17 in Calm     86% 0.00 in 0 W/m2
22:34 52.5 °F 48.5 °F 30.17 in Calm     86% 0.00 in 0 W/m2
22:39 52.3 °F 48.2 °F 30.17 in Calm     86% 0.00 in 0 W/m2
22:44 52.1 °F 48.2 °F 30.17 in Calm     86.5% 0.00 in 0 W/m2
22:49 51.9 °F 48.2 °F 30.17 in Calm     87% 0.00 in 0 W/m2
22:54 51.8 °F 48 °F 30.17 in Calm     87% 0.00 in 0 W/m2
22:59 51.7 °F 48 °F 30.17 in Calm     87.3% 0.00 in 0 W/m2
23:04 51.5 °F 48.1 °F 30.17 in Calm     88% 0.00 in 0 W/m2
23:09 51.3 °F 47.9 °F 30.17 in Calm     88% 0.00 in 0 W/m2
23:14 51.2 °F 47.8 °F 30.17 in Calm     88% 0.00 in 0 W/m2
23:19 51.1 °F 47.8 °F 30.17 in Calm     88.4% 0.00 in 0 W/m2
23:24 51.1 °F 48.4 °F 30.17 in Calm     90.5% 0.00 in 0 W/m2
23:29 51.1 °F 48 °F 30.17 in Calm     89.1% 0.00 in 0 W/m2
23:34 51 °F 47.9 °F 30.17 in Calm     89% 0.00 in 0 W/m2
23:39 51 °F 47.9 °F 30.17 in Calm     89% 0.00 in 0 W/m2
23:44 50.9 °F 47.8 °F 30.16 in Calm     89% 0.00 in 0 W/m2
23:49 50.8 °F 47.9 °F 30.16 in Calm     89.6% 0.00 in 0 W/m2
23:54 50.7 °F 47.9 °F 30.16 in Calm     90% 0.00 in 0 W/m2
23:59 50.6 °F 47.7 °F 30.16 in Calm     89.7% 0.00 in 0 W/m2
Hartford County Weather
Compliments of Weather Underground - 4 mb